34U weather

Yuba Airport
Elk Rapids, Michigan, United States

Public forecast

Using degrees Fahrenheit for public forecast. Weather courtesy of forecast.io.

METAR (pilot weather report)

Closest report is Cherry Capital Airport, 8.7 nm (16.1 km) SW. Retrieved 2019/06/15 21:53 UTC (24 minutes ago):

KTVC 152153Z 01005KT 10SM FEW095 FEW250 17/08 A2984 RMK AO2 SLP105 T01670083

TAF (pilot weather forecast)

Closest forecast is Cherry Capital Airport, 8.7 nm (16.1 km) SW. Retrieved 2019/06/15 18:22 UTC (4 hours ago):

TAF KTVC 151720Z 1518/1618 01005KT P6SM BKN015 FM152000 01005KT P6SM BKN040 FM152100 01005KT P6SM SCT080 FM161700 VRB04KT P6SM BKN120